Oaks Corners, New York
Current Conditions -  °F | °C
As of 9:53 PM on Monday 22 Dec 2014 (Local Time) from KPEO Reporting Station
Overcast Overcast  
Wind Chill: 35°   Ceiling: 5500
Heat Index: 35°   Visibility: 10mi
Dew Point: 27°   Wind: 3mph
Humidity: 72%   Direction: 200°SSW
Pressure: 30.09"   Gusts: NA
Location:  42.93°N, 77.01°W
Report Text: KPEO 230253Z AUTO 20003KT 10SM OVC055 02/M03 A3009 RMK AO2 SLP202 T00171028 56011
Loading
Personal Weather Stations






























Interactive Weather Map New forecast layout! Learn more

10-Day Weather Forecast

Advertisements
Track Severe Weather on mobile